sensor_id;sensor_type;location;lat;lon;timestamp;pressure;altitude;pressure_sealevel;temperature;humidity
46598;BME280;32318;48.858;8.252;2023-02-07T00:03:51;102205.00;;;1.23;74.97
46598;BME280;32318;48.858;8.252;2023-02-07T00:11:51;102199.13;;;1.16;75.29
46598;BME280;32318;48.858;8.252;2023-02-07T00:19:51;102207.03;;;1.16;75.67
46598;BME280;32318;48.858;8.252;2023-02-07T00:27:52;102206.31;;;1.11;75.72
46598;BME280;32318;48.858;8.252;2023-02-07T00:35:59;102202.50;;;1.20;75.39
46598;BME280;32318;48.858;8.252;2023-02-07T00:44:00;102189.56;;;1.14;75.75
46598;BME280;32318;48.858;8.252;2023-02-07T00:52:00;102161.97;;;1.00;76.53
46598;BME280;32318;48.858;8.252;2023-02-07T01:00:00;102156.03;;;0.95;76.66
46598;BME280;32318;48.858;8.252;2023-02-07T01:08:01;102138.53;;;0.94;76.68
46598;BME280;32318;48.858;8.252;2023-02-07T01:16:02;102145.84;;;0.86;76.66
46598;BME280;32318;48.858;8.252;2023-02-07T01:24:02;102176.09;;;0.98;74.72
46598;BME280;32318;48.858;8.252;2023-02-07T01:32:03;102167.78;;;0.85;74.95
46598;BME280;32318;48.858;8.252;2023-02-07T01:40:03;102157.28;;;0.83;73.67
46598;BME280;32318;48.858;8.252;2023-02-07T01:48:08;102157.63;;;0.74;72.34
46598;BME280;32318;48.858;8.252;2023-02-07T01:56:11;102167.50;;;0.67;70.56
46598;BME280;32318;48.858;8.252;2023-02-07T02:04:13;102177.81;;;0.46;71.04
46598;BME280;32318;48.858;8.252;2023-02-07T02:20:56;102183.81;;;0.23;70.69
46598;BME280;32318;48.858;8.252;2023-02-07T02:45:32;102189.75;;;-0.27;72.73
46598;BME280;32318;48.858;8.252;2023-02-07T02:53:35;102188.09;;;-0.31;72.93
46598;BME280;32318;48.858;8.252;2023-02-07T03:26:45;102217.19;;;-0.39;71.21
46598;BME280;32318;48.858;8.252;2023-02-07T03:34:52;102227.72;;;-0.40;70.65
46598;BME280;32318;48.858;8.252;2023-02-07T03:42:58;102230.28;;;-0.37;69.53
46598;BME280;32318;48.858;8.252;2023-02-07T03:51:02;102208.00;;;-0.54;70.33
46598;BME280;32318;48.858;8.252;2023-02-07T03:59:03;102209.09;;;-0.61;70.46
46598;BME280;32318;48.858;8.252;2023-02-07T04:07:04;102221.06;;;-0.52;69.69
46598;BME280;32318;48.858;8.252;2023-02-07T04:15:05;102222.34;;;-0.67;69.46
46598;BME280;32318;48.858;8.252;2023-02-07T04:23:06;102215.72;;;-0.81;70.61
46598;BME280;32318;48.858;8.252;2023-02-07T04:31:06;102200.97;;;-0.85;70.10
46598;BME280;32318;48.858;8.252;2023-02-07T04:39:06;102182.19;;;-0.69;68.09
46598;BME280;32318;48.858;8.252;2023-02-07T04:47:06;102175.81;;;-0.60;67.43
46598;BME280;32318;48.858;8.252;2023-02-07T04:55:08;102164.75;;;-0.70;67.90
46598;BME280;32318;48.858;8.252;2023-02-07T05:03:09;102178.00;;;-0.76;67.53
46598;BME280;32318;48.858;8.252;2023-02-07T05:11:09;102179.28;;;-0.90;68.04
46598;BME280;32318;48.858;8.252;2023-02-07T05:19:09;102195.06;;;-0.93;68.79
46598;BME280;32318;48.858;8.252;2023-02-07T05:27:10;102210.06;;;-0.98;68.65
46598;BME280;32318;48.858;8.252;2023-02-07T05:35:10;102202.50;;;-1.09;69.75
46598;BME280;32318;48.858;8.252;2023-02-07T05:43:11;102215.69;;;-1.12;69.45
46598;BME280;32318;48.858;8.252;2023-02-07T05:51:12;102229.97;;;-1.24;70.72
46598;BME280;32318;48.858;8.252;2023-02-07T05:59:12;102220.59;;;-1.34;71.08
46598;BME280;32318;48.858;8.252;2023-02-07T06:07:12;102221.03;;;-1.53;72.33
46598;BME280;32318;48.858;8.252;2023-02-07T06:15:13;102219.69;;;-1.69;73.53
46598;BME280;32318;48.858;8.252;2023-02-07T06:23:13;102235.50;;;-1.74;73.63
46598;BME280;32318;48.858;8.252;2023-02-07T06:31:13;102228.53;;;-1.74;73.66
46598;BME280;32318;48.858;8.252;2023-02-07T06:39:14;102224.09;;;-1.70;73.34
46598;BME280;32318;48.858;8.252;2023-02-07T06:47:14;102236.09;;;-1.61;72.49
46598;BME280;32318;48.858;8.252;2023-02-07T06:55:15;102232.47;;;-1.55;71.66
46598;BME280;32318;48.858;8.252;2023-02-07T07:03:16;102243.66;;;-1.49;71.11
46598;BME280;32318;48.858;8.252;2023-02-07T07:11:16;102248.91;;;-1.50;71.74
46598;BME280;32318;48.858;8.252;2023-02-07T07:19:17;102262.00;;;-1.49;71.42
46598;BME280;32318;48.858;8.252;2023-02-07T07:27:18;102266.34;;;-1.48;71.28
46598;BME280;32318;48.858;8.252;2023-02-07T07:35:18;102258.41;;;-1.45;71.29
46598;BME280;32318;48.858;8.252;2023-02-07T07:43:19;102270.50;;;-1.39;71.14
46598;BME280;32318;48.858;8.252;2023-02-07T07:51:19;102264.31;;;-1.36;70.95
46598;BME280;32318;48.858;8.252;2023-02-07T07:59:19;102265.00;;;-1.28;70.14
46598;BME280;32318;48.858;8.252;2023-02-07T08:07:20;102272.63;;;-1.19;70.38
46598;BME280;32318;48.858;8.252;2023-02-07T08:15:20;102266.44;;;-1.16;69.67
46598;BME280;32318;48.858;8.252;2023-02-07T08:23:21;102275.69;;;-1.01;69.58
46598;BME280;32318;48.858;8.252;2023-02-07T08:31:21;102286.66;;;-0.85;68.71
46598;BME280;32318;48.858;8.252;2023-02-07T08:39:21;102311.78;;;-0.76;68.69
46598;BME280;32318;48.858;8.252;2023-02-07T08:47:22;102328.94;;;-0.63;68.29
46598;BME280;32318;48.858;8.252;2023-02-07T08:55:22;102340.91;;;-0.53;67.30
46598;BME280;32318;48.858;8.252;2023-02-07T09:03:24;102348.25;;;-0.33;66.35
46598;BME280;32318;48.858;8.252;2023-02-07T09:11:24;102354.34;;;-0.32;66.49
46598;BME280;32318;48.858;8.252;2023-02-07T09:19:24;102345.41;;;-0.25;66.17
46598;BME280;32318;48.858;8.252;2023-02-07T09:27:24;102359.97;;;-0.13;65.78
46598;BME280;32318;48.858;8.252;2023-02-07T09:35:25;102365.56;;;0.06;64.20
46598;BME280;32318;48.858;8.252;2023-02-07T09:51:32;102362.94;;;0.36;63.11
46598;BME280;32318;48.858;8.252;2023-02-07T09:59:42;102385.97;;;0.58;62.30
46598;BME280;32318;48.858;8.252;2023-02-07T10:07:47;102380.44;;;0.67;61.97
46598;BME280;32318;48.858;8.252;2023-02-07T10:32:27;102368.94;;;0.98;60.23
46598;BME280;32318;48.858;8.252;2023-02-07T10:40:41;102368.88;;;1.28;58.80
46598;BME280;32318;48.858;8.252;2023-02-07T10:48:43;102372.09;;;1.36;59.00
46598;BME280;32318;48.858;8.252;2023-02-07T10:56:46;102369.84;;;1.51;58.06
46598;BME280;32318;48.858;8.252;2023-02-07T11:04:46;102372.09;;;1.63;57.03
46598;BME280;32318;48.858;8.252;2023-02-07T11:12:52;102370.06;;;1.70;56.80
46598;BME280;32318;48.858;8.252;2023-02-07T11:20:53;102344.28;;;1.80;56.19
46598;BME280;32318;48.858;8.252;2023-02-07T11:29:05;102342.75;;;1.98;56.21
46598;BME280;32318;48.858;8.252;2023-02-07T11:37:21;102337.78;;;2.14;56.55
46598;BME280;32318;48.858;8.252;2023-02-07T11:45:22;102333.00;;;2.24;56.20
46598;BME280;32318;48.858;8.252;2023-02-07T11:53:26;102319.06;;;2.44;55.42
46598;BME280;32318;48.858;8.252;2023-02-07T12:01:30;102316.88;;;2.55;54.66
46598;BME280;32318;48.858;8.252;2023-02-07T12:26:20;102311.69;;;2.96;52.97
46598;BME280;32318;48.858;8.252;2023-02-07T12:34:31;102302.47;;;3.07;53.29
46598;BME280;32318;48.858;8.252;2023-02-07T12:42:42;102285.66;;;3.09;53.92
46598;BME280;32318;48.858;8.252;2023-02-07T13:23:40;102243.84;;;3.60;53.49
46598;BME280;32318;48.858;8.252;2023-02-07T13:31:50;102236.53;;;3.67;52.55
46598;BME280;32318;48.858;8.252;2023-02-07T13:48:16;102257.28;;;3.75;52.10
46598;BME280;32318;48.858;8.252;2023-02-07T13:56:33;102268.31;;;3.85;51.84
46598;BME280;32318;48.858;8.252;2023-02-07T14:04:54;102269.16;;;3.85;51.24
46598;BME280;32318;48.858;8.252;2023-02-07T14:12:56;102256.03;;;3.84;51.33
46598;BME280;32318;48.858;8.252;2023-02-07T14:21:02;102262.16;;;3.84;51.92
46598;BME280;32318;48.858;8.252;2023-02-07T14:46:07;102249.59;;;4.08;50.39
46598;BME280;32318;48.858;8.252;2023-02-07T15:10:32;102273.31;;;3.91;51.05
46598;BME280;32318;48.858;8.252;2023-02-07T15:18:39;102254.72;;;3.92;50.22
46598;BME280;32318;48.858;8.252;2023-02-07T15:26:40;102273.66;;;3.83;50.45
46598;BME280;32318;48.858;8.252;2023-02-07T15:34:43;102273.13;;;3.75;50.26
46598;BME280;32318;48.858;8.252;2023-02-07T15:42:50;102287.28;;;3.74;50.42
46598;BME280;32318;48.858;8.252;2023-02-07T15:50:53;102284.63;;;3.74;50.09
46598;BME280;32318;48.858;8.252;2023-02-07T15:59:08;102281.78;;;3.79;49.82
46598;BME280;32318;48.858;8.252;2023-02-07T16:07:11;102294.44;;;3.72;49.70
46598;BME280;32318;48.858;8.252;2023-02-07T16:15:28;102302.97;;;3.58;49.92
46598;BME280;32318;48.858;8.252;2023-02-07T16:23:28;102303.63;;;3.42;50.18
46598;BME280;32318;48.858;8.252;2023-02-07T16:31:29;102317.47;;;3.27;50.23
46598;BME280;32318;48.858;8.252;2023-02-07T16:39:30;102332.78;;;2.98;52.76
46598;BME280;32318;48.858;8.252;2023-02-07T16:47:30;102340.50;;;2.58;54.29
46598;BME280;32318;48.858;8.252;2023-02-07T16:55:32;102343.31;;;2.30;55.65
46598;BME280;32318;48.858;8.252;2023-02-07T17:03:32;102345.63;;;2.15;55.53
46598;BME280;32318;48.858;8.252;2023-02-07T17:11:32;102348.19;;;2.17;53.87
46598;BME280;32318;48.858;8.252;2023-02-07T17:19:39;102348.44;;;2.11;53.78
46598;BME280;32318;48.858;8.252;2023-02-07T17:27:46;102342.66;;;2.01;53.49
46598;BME280;32318;48.858;8.252;2023-02-07T17:35:47;102340.00;;;1.77;54.52
46598;BME280;32318;48.858;8.252;2023-02-07T17:43:47;102343.31;;;1.57;55.13
46598;BME280;32318;48.858;8.252;2023-02-07T17:51:47;102336.22;;;1.59;54.48
46598;BME280;32318;48.858;8.252;2023-02-07T17:59:47;102342.63;;;1.52;54.80
46598;BME280;32318;48.858;8.252;2023-02-07T18:07:49;102346.38;;;1.45;54.18
46598;BME280;32318;48.858;8.252;2023-02-07T18:15:50;102350.94;;;1.39;53.74
46598;BME280;32318;48.858;8.252;2023-02-07T18:23:50;102348.31;;;1.39;53.39
46598;BME280;32318;48.858;8.252;2023-02-07T18:31:52;102360.16;;;1.26;53.57
46598;BME280;32318;48.858;8.252;2023-02-07T18:39:52;102358.53;;;1.22;53.41
46598;BME280;32318;48.858;8.252;2023-02-07T18:47:53;102361.53;;;1.11;53.73
46598;BME280;32318;48.858;8.252;2023-02-07T18:55:53;102358.06;;;1.09;53.71
46598;BME280;32318;48.858;8.252;2023-02-07T19:03:53;102371.38;;;1.04;53.74
46598;BME280;32318;48.858;8.252;2023-02-07T19:11:55;102361.19;;;0.95;54.34
46598;BME280;32318;48.858;8.252;2023-02-07T19:19:58;102359.47;;;0.94;54.32
46598;BME280;32318;48.858;8.252;2023-02-07T19:27:59;102348.34;;;0.84;54.84
46598;BME280;32318;48.858;8.252;2023-02-07T19:36:08;102337.94;;;0.81;55.59
46598;BME280;32318;48.858;8.252;2023-02-07T19:44:08;102339.97;;;0.73;55.73
46598;BME280;32318;48.858;8.252;2023-02-07T19:52:09;102347.03;;;0.71;55.95
46598;BME280;32318;48.858;8.252;2023-02-07T20:00:10;102352.34;;;0.69;55.87
46598;BME280;32318;48.858;8.252;2023-02-07T20:08:11;102362.03;;;0.67;55.87
46598;BME280;32318;48.858;8.252;2023-02-07T20:16:14;102363.38;;;0.52;57.01
46598;BME280;32318;48.858;8.252;2023-02-07T20:24:15;102369.75;;;0.43;57.18
46598;BME280;32318;48.858;8.252;2023-02-07T20:32:15;102355.56;;;0.49;56.71
46598;BME280;32318;48.858;8.252;2023-02-07T20:40:16;102364.91;;;0.29;57.73
46598;BME280;32318;48.858;8.252;2023-02-07T20:48:17;102367.19;;;0.10;58.34
46598;BME280;32318;48.858;8.252;2023-02-07T20:56:17;102372.50;;;0.09;58.46
46598;BME280;32318;48.858;8.252;2023-02-07T21:04:17;102369.22;;;0.01;58.94
46598;BME280;32318;48.858;8.252;2023-02-07T21:12:18;102359.16;;;-0.15;59.21
46598;BME280;32318;48.858;8.252;2023-02-07T21:20:18;102358.59;;;-0.26;59.82
46598;BME280;32318;48.858;8.252;2023-02-07T21:28:18;102337.66;;;-0.29;60.02
46598;BME280;32318;48.858;8.252;2023-02-07T21:36:21;102341.47;;;-0.41;60.36
46598;BME280;32318;48.858;8.252;2023-02-07T21:44:22;102340.81;;;-0.50;60.56
46598;BME280;32318;48.858;8.252;2023-02-07T21:52:22;102345.25;;;-0.52;60.92
46598;BME280;32318;48.858;8.252;2023-02-07T22:00:23;102348.09;;;-0.59;61.47
46598;BME280;32318;48.858;8.252;2023-02-07T22:08:23;102344.50;;;-0.57;61.12
46598;BME280;32318;48.858;8.252;2023-02-07T22:16:25;102341.22;;;-0.65;61.27
46598;BME280;32318;48.858;8.252;2023-02-07T22:24:25;102336.75;;;-0.61;60.32
46598;BME280;32318;48.858;8.252;2023-02-07T22:32:28;102330.97;;;-0.74;60.93
46598;BME280;32318;48.858;8.252;2023-02-07T22:40:33;102325.16;;;-0.87;61.77
46598;BME280;32318;48.858;8.252;2023-02-07T22:48:37;102328.78;;;-0.91;61.95
46598;BME280;32318;48.858;8.252;2023-02-07T22:56:37;102318.41;;;-0.96;61.71
46598;BME280;32318;48.858;8.252;2023-02-07T23:04:38;102327.91;;;-0.92;61.51
46598;BME280;32318;48.858;8.252;2023-02-07T23:12:38;102324.09;;;-0.78;60.76
46598;BME280;32318;48.858;8.252;2023-02-07T23:20:42;102321.47;;;-0.78;60.67
46598;BME280;32318;48.858;8.252;2023-02-07T23:28:43;102319.63;;;-0.75;60.07
46598;BME280;32318;48.858;8.252;2023-02-07T23:36:44;102324.94;;;-0.78;59.77
46598;BME280;32318;48.858;8.252;2023-02-07T23:44:44;102326.84;;;-0.85;60.26
46598;BME280;32318;48.858;8.252;2023-02-07T23:52:44;102317.91;;;-0.76;59.97
